Time;durP1;ratioP1;P1;durP2;ratioP2;P2;SDS_P1;SDS_P2;PMS_P1;PMS_P2;Temp;Humidity;BMP_temperature;BMP_pressure;BME280_temperature;BME280_humidity;BME280_pressure;Samples;Min_cycle;Max_cycle;Signal;HPM_P1;HPM_P2
2021/03/06 00:41:56;;;;;;;5.60;4.50;;;;;;;;;;10215968;29;20043;-85
2021/03/06 03:37:02;;;;;;;6.40;5.78;;;;;;;;;;10194326;29;20040;-86
2021/03/06 08:31:40;;;;;;;7.57;4.72;;;;;;;;;;10236948;29;20031;-85
2021/03/06 08:36:43;;;;;;;6.05;4.60;;;;;;;;;;10218851;29;20039;-86
2021/03/06 08:47:35;;;;;;;7.75;4.55;;;;;;;;;;10237882;29;20027;-86
2021/03/06 08:52:41;;;;;;;7.20;4.28;;;;;;;;;;10234972;29;20036;-87
2021/03/06 08:57:42;;;;;;;4.63;3.80;;;;;;;;;;10204465;29;20100;-84
2021/03/06 09:02:53;;;;;;;5.47;3.65;;;;;;;;;;10220226;29;20055;-85
2021/03/06 09:08:26;;;;;;;6.28;3.38;;;;;;;;;;10218494;29;20047;-85
2021/03/06 09:13:37;;;;;;;5.30;3.05;;;;;;;;;;10233942;29;20048;-85
2021/03/06 09:18:53;;;;;;;5.75;3.00;;;;;;;;;;10235760;29;20050;-84
2021/03/06 09:24:02;;;;;;;6.43;2.70;;;;;;;;;;10204242;29;20036;-84
2021/03/06 09:29:08;;;;;;;4.60;2.60;;;;;;;;;;10231932;29;20118;-85
2021/03/06 09:34:10;;;;;;;5.15;2.22;;;;;;;;;;10218910;29;20040;-85
2021/03/06 09:39:32;;;;;;;5.43;2.13;;;;;;;;;;10219893;29;20031;-87
2021/03/06 09:44:53;;;;;;;4.97;1.92;;;;;;;;;;10235492;29;20059;-85
2021/03/06 09:50:15;;;;;;;3.58;2.35;;;;;;;;;;10226710;29;20039;-86
2021/03/06 09:55:35;;;;;;;4.65;1.92;;;;;;;;;;10216971;29;20036;-85
2021/03/06 10:01:13;;;;;;;4.72;1.90;;;;;;;;;;10210258;29;20039;-85
2021/03/06 10:12:36;;;;;;;6.18;1.75;;;;;;;;;;10247503;29;20039;-87
2021/03/06 10:18:19;;;;;;;4.85;1.77;;;;;;;;;;10245587;29;20048;-87
2021/03/06 10:56:12;;;;;;;3.08;1.10;;;;;;;;;;10324410;23;20067;-85
2021/03/06 11:01:42;;;;;;;2.67;1.42;;;;;;;;;;10267664;29;20537;-85
2021/03/06 11:13:01;;;;;;;3.30;1.30;;;;;;;;;;10200233;29;20032;-84
2021/03/06 11:18:04;;;;;;;2.85;1.23;;;;;;;;;;10203233;29;20037;-84
2021/03/06 11:23:05;;;;;;;4.20;1.20;;;;;;;;;;10250863;29;20061;-83
2021/03/06 11:33:47;;;;;;;4.32;0.95;;;;;;;;;;10294773;28;20106;-85
2021/03/06 11:38:50;;;;;;;4.15;1.40;;;;;;;;;;10259089;29;20050;-84
2021/03/06 11:49:46;;;;;;;3.90;1.17;;;;;;;;;;10300682;28;20074;-85
2021/03/06 11:54:47;;;;;;;2.95;1.00;;;;;;;;;;10267568;28;20066;-84
2021/03/06 11:59:49;;;;;;;4.47;1.67;;;;;;;;;;10266530;29;20053;-85
2021/03/06 12:04:50;;;;;;;3.15;1.30;;;;;;;;;;10282526;28;20055;-84
2021/03/06 12:09:51;;;;;;;2.78;1.08;;;;;;;;;;10268781;29;20035;-84
2021/03/06 12:14:52;;;;;;;6.43;1.58;;;;;;;;;;10278927;28;20107;-85
2021/03/06 12:19:53;;;;;;;3.50;1.60;;;;;;;;;;10279070;29;20039;-85
2021/03/06 12:24:54;;;;;;;3.25;1.60;;;;;;;;;;10280611;28;20099;-85
2021/03/06 12:29:55;;;;;;;1.75;0.85;;;;;;;;;;10284912;28;20046;-82
2021/03/06 12:34:56;;;;;;;3.45;1.35;;;;;;;;;;10274597;28;20046;-86
2021/03/06 12:39:57;;;;;;;2.83;1.40;;;;;;;;;;10274184;29;20035;-86
2021/03/06 12:44:58;;;;;;;2.85;1.23;;;;;;;;;;10275655;28;20062;-86
2021/03/06 12:49:59;;;;;;;2.17;1.20;;;;;;;;;;10274699;29;20063;-85
2021/03/06 12:55:04;;;;;;;2.90;1.63;;;;;;;;;;10262618;28;20089;-85
2021/03/06 13:00:06;;;;;;;2.00;1.05;;;;;;;;;;10278615;29;20034;-84
2021/03/06 13:05:07;;;;;;;3.03;1.42;;;;;;;;;;10279857;28;20072;-86
2021/03/06 13:10:08;;;;;;;3.40;1.60;;;;;;;;;;10276151;29;20092;-85
2021/03/06 13:15:09;;;;;;;2.47;1.60;;;;;;;;;;10276449;28;20063;-84
2021/03/06 13:20:11;;;;;;;2.28;1.30;;;;;;;;;;10279480;29;20035;-84
2021/03/06 13:25:12;;;;;;;3.05;1.20;;;;;;;;;;10270930;28;20035;-84
2021/03/06 13:30:13;;;;;;;1.85;1.10;;;;;;;;;;10282446;29;20043;-83
2021/03/06 13:35:14;;;;;;;3.25;1.25;;;;;;;;;;10280561;28;20041;-83
2021/03/06 13:40:16;;;;;;;2.50;1.60;;;;;;;;;;10275122;29;20035;-83
2021/03/06 13:45:17;;;;;;;1.75;1.10;;;;;;;;;;10268644;28;20039;-87
2021/03/06 13:50:18;;;;;;;2.47;1.30;;;;;;;;;;10270905;29;20039;-84
2021/03/06 13:55:21;;;;;;;2.28;1.17;;;;;;;;;;10265435;28;20050;-84
2021/03/06 14:00:23;;;;;;;3.97;1.60;;;;;;;;;;10267816;29;20130;-84
2021/03/06 14:05:24;;;;;;;2.92;1.67;;;;;;;;;;10271623;28;20047;-85
2021/03/06 14:10:27;;;;;;;2.97;1.58;;;;;;;;;;10267449;29;20074;-85
2021/03/06 14:15:28;;;;;;;3.47;1.35;;;;;;;;;;10271617;28;20059;-84
2021/03/06 14:20:31;;;;;;;2.40;1.50;;;;;;;;;;10264758;29;20042;-85
2021/03/06 14:25:32;;;;;;;3.80;1.38;;;;;;;;;;10268193;28;20039;-85
2021/03/06 14:30:33;;;;;;;1.90;1.15;;;;;;;;;;10268541;29;20085;-87
2021/03/06 14:35:37;;;;;;;4.05;1.70;;;;;;;;;;10270176;28;20047;-86
2021/03/06 14:40:38;;;;;;;2.17;1.33;;;;;;;;;;10262513;29;20062;-85
2021/03/06 14:45:42;;;;;;;5.03;2.42;;;;;;;;;;10261633;28;20046;-86
2021/03/06 14:50:43;;;;;;;3.53;2.15;;;;;;;;;;10270129;29;20046;-85
2021/03/06 14:55:47;;;;;;;3.05;1.48;;;;;;;;;;10273170;28;20043;-85
2021/03/06 15:00:48;;;;;;;3.20;1.90;;;;;;;;;;10267112;29;20043;-86
2021/03/06 15:05:50;;;;;;;4.22;1.50;;;;;;;;;;10270700;28;20039;-85
2021/03/06 15:10:51;;;;;;;2.83;1.20;;;;;;;;;;10270338;29;20039;-86
2021/03/06 15:15:52;;;;;;;3.03;1.52;;;;;;;;;;10259721;28;20045;-87
2021/03/06 15:20:56;;;;;;;3.63;1.92;;;;;;;;;;10280690;28;20062;-85
2021/03/06 15:26:02;;;;;;;3.33;1.52;;;;;;;;;;10266686;28;20027;-87
2021/03/06 15:31:02;;;;;;;2.50;1.63;;;;;;;;;;10267940;29;20040;-84
2021/03/06 15:36:14;;;;;;;3.47;2.20;;;;;;;;;;10272109;28;20043;-84
2021/03/06 15:41:18;;;;;;;1.42;1.17;;;;;;;;;;10269136;29;20035;-87
2021/03/06 15:46:22;;;;;;;2.80;1.58;;;;;;;;;;10273044;29;20049;-85
2021/03/06 15:51:25;;;;;;;3.95;2.00;;;;;;;;;;10273280;29;20039;-85
2021/03/06 15:56:26;;;;;;;2.72;1.65;;;;;;;;;;10267065;29;20039;-87
2021/03/06 16:01:30;;;;;;;3.25;1.92;;;;;;;;;;10267190;29;20039;-88
2021/03/06 16:06:31;;;;;;;3.38;1.90;;;;;;;;;;10254542;29;20039;-86
2021/03/06 16:11:32;;;;;;;2.72;1.60;;;;;;;;;;10259207;29;20039;-86
2021/03/06 16:16:33;;;;;;;3.47;1.70;;;;;;;;;;10257876;29;20039;-86
2021/03/06 16:21:38;;;;;;;2.58;1.70;;;;;;;;;;10281472;29;20046;-87
2021/03/06 16:26:48;;;;;;;3.72;1.50;;;;;;;;;;10292560;28;20564;-88
2021/03/06 16:31:49;;;;;;;2.63;1.85;;;;;;;;;;10270564;29;20039;-87
2021/03/06 16:36:50;;;;;;;3.10;1.50;;;;;;;;;;10265889;29;20066;-84
2021/03/06 16:41:51;;;;;;;2.63;1.55;;;;;;;;;;10265189;29;20031;-84
2021/03/06 16:46:52;;;;;;;2.42;1.20;;;;;;;;;;10260857;29;20050;-85
2021/03/06 16:51:53;;;;;;;2.83;1.48;;;;;;;;;;10265462;29;20141;-86
2021/03/06 16:57:01;;;;;;;2.25;1.55;;;;;;;;;;10294575;23;20120;-85
2021/03/06 17:02:03;;;;;;;2.15;1.60;;;;;;;;;;10314150;28;20058;-86
2021/03/06 17:12:47;;;;;;;2.35;1.80;;;;;;;;;;10270936;29;20025;-87
2021/03/06 17:23:55;;;;;;;3.00;1.70;;;;;;;;;;10283977;28;20016;-87
2021/03/06 17:34:49;;;;;;;2.58;2.10;;;;;;;;;;10302562;28;20027;-87
2021/03/06 17:40:04;;;;;;;3.28;2.30;;;;;;;;;;10250682;28;20086;-85
2021/03/06 17:45:10;;;;;;;2.92;2.20;;;;;;;;;;10286209;28;20039;-86
2021/03/06 17:50:16;;;;;;;2.70;2.38;;;;;;;;;;10245018;29;20031;-86
2021/03/06 18:00:59;;;;;;;4.47;3.42;;;;;;;;;;10298526;29;20039;-86
2021/03/06 18:06:06;;;;;;;5.63;4.00;;;;;;;;;;10280152;28;20047;-87
2021/03/06 18:11:07;;;;;;;4.47;4.05;;;;;;;;;;10271319;29;20047;-86
2021/03/06 18:16:38;;;;;;;5.10;4.60;;;;;;;;;;10266674;28;20047;-86
2021/03/06 18:21:46;;;;;;;6.47;4.90;;;;;;;;;;10278413;29;20051;-87
2021/03/06 18:26:47;;;;;;;5.45;4.85;;;;;;;;;;10279211;28;20545;-86
2021/03/06 18:32:06;;;;;;;5.65;5.05;;;;;;;;;;10264120;29;20043;-85
2021/03/06 18:37:08;;;;;;;5.53;4.63;;;;;;;;;;10255278;29;20036;-87
2021/03/06 18:42:09;;;;;;;5.95;5.07;;;;;;;;;;10256340;28;20090;-86
2021/03/06 18:47:09;;;;;;;5.93;5.30;;;;;;;;;;10259678;29;20086;-86
2021/03/06 18:52:10;;;;;;;5.85;5.10;;;;;;;;;;10251451;29;20035;-86
2021/03/06 18:57:11;;;;;;;5.70;4.40;;;;;;;;;;10256072;29;20453;-86
2021/03/06 19:02:13;;;;;;;6.65;5.82;;;;;;;;;;10248848;29;20035;-85
2021/03/06 19:07:14;;;;;;;7.93;7.05;;;;;;;;;;10256961;29;20035;-85
2021/03/06 19:12:15;;;;;;;8.15;7.35;;;;;;;;;;10278144;29;20039;-85
2021/03/06 19:17:16;;;;;;;4.97;4.47;;;;;;;;;;10277871;29;20130;-85
2021/03/06 19:22:17;;;;;;;5.78;4.20;;;;;;;;;;10271882;29;20059;-85
2021/03/06 19:27:18;;;;;;;5.75;5.25;;;;;;;;;;10246922;29;20480;-86
2021/03/06 19:32:19;;;;;;;6.80;5.88;;;;;;;;;;10261102;29;20069;-87
2021/03/06 19:37:20;;;;;;;5.88;5.28;;;;;;;;;;10267747;29;20055;-86
2021/03/06 19:42:21;;;;;;;5.30;4.80;;;;;;;;;;10255399;29;20067;-86
2021/03/06 19:47:22;;;;;;;4.95;4.45;;;;;;;;;;10279613;29;20035;-86
2021/03/06 19:52:24;;;;;;;6.10;5.50;;;;;;;;;;10278952;28;20044;-84
2021/03/06 19:57:25;;;;;;;5.93;5.32;;;;;;;;;;10287493;28;20051;-83
2021/03/06 20:02:26;;;;;;;7.47;5.60;;;;;;;;;;10282932;28;20046;-85
2021/03/06 20:07:27;;;;;;;5.95;5.35;;;;;;;;;;10271897;29;20035;-85
2021/03/06 20:12:28;;;;;;;6.55;5.95;;;;;;;;;;10258078;29;20054;-85
2021/03/06 20:17:29;;;;;;;8.70;7.00;;;;;;;;;;10261887;29;20046;-84
2021/03/06 20:22:30;;;;;;;6.28;5.68;;;;;;;;;;10257340;29;20045;-84
2021/03/06 20:27:31;;;;;;;8.52;7.72;;;;;;;;;;10277088;29;20039;-85
2021/03/06 20:32:33;;;;;;;7.35;6.65;;;;;;;;;;10258760;29;20039;-85
2021/03/06 20:37:34;;;;;;;9.88;8.88;;;;;;;;;;10270799;29;20039;-85
2021/03/06 20:42:35;;;;;;;14.32;12.65;;;;;;;;;;10266935;29;20054;-85
2021/03/06 20:47:36;;;;;;;9.95;8.95;;;;;;;;;;10278348;29;20043;-86
2021/03/06 20:52:37;;;;;;;13.50;12.15;;;;;;;;;;10266505;29;20083;-85
2021/03/06 20:57:38;;;;;;;10.27;9.38;;;;;;;;;;10264171;29;20106;-86
2021/03/06 21:02:39;;;;;;;11.60;10.50;;;;;;;;;;10264097;29;20039;-86
2021/03/06 21:07:44;;;;;;;9.52;8.55;;;;;;;;;;10275424;29;20046;-87
2021/03/06 21:12:45;;;;;;;10.98;9.98;;;;;;;;;;10282960;29;20054;-86
2021/03/06 21:17:46;;;;;;;11.57;10.38;;;;;;;;;;10286921;29;20055;-86
2021/03/06 21:22:47;;;;;;;11.18;10.13;;;;;;;;;;10279471;29;20035;-85
2021/03/06 21:27:49;;;;;;;10.65;9.65;;;;;;;;;;10275655;29;20039;-84
2021/03/06 21:32:53;;;;;;;13.73;12.35;;;;;;;;;;10284931;28;20031;-85
2021/03/06 21:37:57;;;;;;;10.93;9.82;;;;;;;;;;10288671;28;20050;-85
2021/03/06 21:42:58;;;;;;;11.27;10.18;;;;;;;;;;10274617;29;20071;-86
2021/03/06 21:48:02;;;;;;;11.20;10.10;;;;;;;;;;10258689;29;20031;-85
2021/03/06 21:53:04;;;;;;;11.50;10.30;;;;;;;;;;10272705;29;20098;-85
2021/03/06 21:58:05;;;;;;;12.57;11.48;;;;;;;;;;10252389;29;20043;-85
2021/03/06 22:03:09;;;;;;;11.13;10.02;;;;;;;;;;10275921;29;20043;-85
2021/03/06 22:08:11;;;;;;;11.05;10.00;;;;;;;;;;10273859;29;20031;-85
2021/03/06 22:13:11;;;;;;;11.88;10.68;;;;;;;;;;10264790;29;20039;-86
2021/03/06 22:18:12;;;;;;;11.70;10.48;;;;;;;;;;10267991;29;20054;-86
2021/03/06 22:23:16;;;;;;;10.75;9.73;;;;;;;;;;10280999;28;20106;-85
2021/03/06 22:28:21;;;;;;;10.27;9.27;;;;;;;;;;10275751;29;20438;-85
2021/03/06 22:33:22;;;;;;;10.63;9.63;;;;;;;;;;10267569;28;20048;-86
2021/03/06 22:38:38;;;;;;;10.68;9.68;;;;;;;;;;10299829;29;20059;-85
2021/03/06 22:43:39;;;;;;;10.90;9.82;;;;;;;;;;10278158;28;20152;-84
2021/03/06 22:48:40;;;;;;;10.05;9.10;;;;;;;;;;10271322;29;20054;-84
2021/03/06 22:53:44;;;;;;;10.30;9.40;;;;;;;;;;10272487;28;20055;-87
2021/03/06 22:58:45;;;;;;;9.40;8.50;;;;;;;;;;10262870;29;20084;-86
2021/03/06 23:03:49;;;;;;;9.93;8.95;;;;;;;;;;10274773;28;20091;-88
2021/03/06 23:08:50;;;;;;;10.57;9.57;;;;;;;;;;10281781;29;20043;-85
2021/03/06 23:13:51;;;;;;;10.00;9.10;;;;;;;;;;10268155;28;20107;-86
2021/03/06 23:18:55;;;;;;;9.98;9.07;;;;;;;;;;10271709;29;20102;-86
2021/03/06 23:23:56;;;;;;;10.68;9.68;;;;;;;;;;10275990;28;20116;-86
2021/03/06 23:28:57;;;;;;;10.45;9.55;;;;;;;;;;10303771;28;20042;-86
2021/03/06 23:33:58;;;;;;;10.05;9.15;;;;;;;;;;10266075;28;20178;-86
2021/03/06 23:38:59;;;;;;;8.48;7.65;;;;;;;;;;10260818;29;20498;-84
2021/03/06 23:44:00;;;;;;;7.90;7.07;;;;;;;;;;10263579;28;20036;-86
2021/03/06 23:49:01;;;;;;;7.78;6.97;;;;;;;;;;10292789;29;20070;-86
2021/03/06 23:54:02;;;;;;;6.93;6.32;;;;;;;;;;10276257;28;20042;-86
2021/03/06 23:59:03;;;;;;;7.18;6.57;;;;;;;;;;10263202;29;20049;-87
